createdAt,value
2022-11-27T00:01:36.716Z,-2.02
2022-11-27T00:04:05.943Z,-1.83
2022-11-27T00:06:35.864Z,-1.88
2022-11-27T00:09:07.839Z,-1.77
2022-11-27T00:11:39.365Z,-1.75
2022-11-27T00:14:10.977Z,-1.66
2022-11-27T00:16:39.369Z,-1.85
2022-11-27T00:19:07.957Z,-1.96
2022-11-27T00:21:37.042Z,-2.14
2022-11-27T00:24:07.735Z,-1.90
2022-11-27T00:26:38.370Z,-2.07
2022-11-27T00:29:07.712Z,-1.75
2022-11-27T00:31:38.442Z,-2.00
2022-11-27T00:34:08.772Z,-1.91
2022-11-27T00:36:38.303Z,-2.14
2022-11-27T00:39:07.161Z,-2.16
2022-11-27T00:41:35.970Z,-2.07
2022-11-27T00:44:05.145Z,-2.11
2022-11-27T00:46:34.965Z,-2.08
2022-11-27T00:49:05.964Z,-1.75
2022-11-27T00:51:34.884Z,-1.86
2022-11-27T00:54:03.624Z,-2.04
2022-11-27T00:56:34.107Z,-2.23
2022-11-27T00:59:02.990Z,-2.19
2022-11-27T01:01:32.766Z,-2.02
2022-11-27T01:04:01.604Z,-1.65
2022-11-27T01:06:32.262Z,-1.52
2022-11-27T01:09:01.224Z,-1.62
2022-11-27T01:11:31.403Z,-1.75
2022-11-27T01:14:00.185Z,-1.77
2022-11-27T01:16:30.263Z,-2.00
2022-11-27T01:19:00.033Z,-1.76
2022-11-27T01:21:32.399Z,-1.73
2022-11-27T01:24:01.643Z,-1.63
2022-11-27T01:26:30.517Z,-1.51
2022-11-27T01:28:59.626Z,-1.43
2022-11-27T01:31:31.611Z,-1.42
2022-11-27T01:34:01.741Z,-1.38
2022-11-27T01:36:32.832Z,-1.38
2022-11-27T01:39:02.009Z,-1.34
2022-11-27T01:41:32.194Z,-1.30
2022-11-27T01:44:02.288Z,-1.45
2022-11-27T01:46:36.656Z,-1.46
2022-11-27T01:49:21.526Z,-1.22
2022-11-27T01:51:53.993Z,-1.25
2022-11-27T01:54:23.532Z,-0.84
2022-11-27T01:56:56.242Z,-0.63
2022-11-27T01:59:25.297Z,-1.17
2022-11-27T02:01:53.623Z,-1.02
2022-11-27T02:04:22.324Z,-0.87
2022-11-27T02:06:52.394Z,-1.10
2022-11-27T02:09:21.006Z,-1.37
2022-11-27T02:11:55.382Z,-1.01
2022-11-27T02:14:28.165Z,-0.90
2022-11-27T02:17:00.448Z,-1.12
2022-11-27T02:19:40.509Z,-0.91
2022-11-27T02:22:19.545Z,-0.84
2022-11-27T02:24:54.783Z,-0.83
2022-11-27T02:28:03.024Z,-0.92
2022-11-27T02:30:37.619Z,-1.23
2022-11-27T02:33:07.930Z,-0.93
2022-11-27T02:35:37.378Z,-0.86
2022-11-27T02:38:09.211Z,-0.92
2022-11-27T02:40:40.552Z,-0.97
2022-11-27T02:43:11.939Z,-1.16
2022-11-27T02:45:44.168Z,-0.97
2022-11-27T02:48:14.700Z,-1.00
2022-11-27T02:50:45.942Z,-1.10
2022-11-27T02:53:18.931Z,-0.98
2022-11-27T02:55:48.260Z,-1.24
2022-11-27T02:58:19.618Z,-1.06
2022-11-27T03:00:50.835Z,-0.95
2022-11-27T03:03:22.966Z,-0.86
2022-11-27T03:05:54.003Z,-0.95
2022-11-27T03:08:27.065Z,-1.44
2022-11-27T03:10:59.549Z,-1.15
2022-11-27T03:13:28.968Z,-0.98
2022-11-27T03:16:08.363Z,-1.03
2022-11-27T03:18:40.496Z,-1.25
2022-11-27T03:21:16.809Z,-1.28
2022-11-27T03:23:45.613Z,-1.34
2022-11-27T03:26:14.329Z,-1.38
2022-11-27T03:28:44.552Z,-1.36
2022-11-27T03:31:15.008Z,-1.44
2022-11-27T03:33:43.723Z,-1.37
2022-11-27T03:36:15.015Z,-1.21
2022-11-27T03:38:44.025Z,-1.15
2022-11-27T03:41:20.485Z,-0.99
2022-11-27T03:43:57.641Z,-0.91
2022-11-27T03:46:33.220Z,-1.05
2022-11-27T03:49:10.441Z,-1.13
2022-11-27T03:51:43.189Z,-1.21
2022-11-27T03:54:19.086Z,-1.42
2022-11-27T03:56:51.844Z,-1.38
2022-11-27T03:59:25.194Z,-1.37
2022-11-27T04:01:54.945Z,-1.27
2022-11-27T04:04:23.711Z,-1.40
2022-11-27T04:06:52.441Z,-1.37
2022-11-27T04:09:21.057Z,-1.60
2022-11-27T04:11:49.817Z,-1.46
2022-11-27T04:14:18.431Z,-1.35
2022-11-27T04:16:46.641Z,-1.34
2022-11-27T04:19:16.929Z,-1.17
2022-11-27T04:21:45.345Z,-1.01
2022-11-27T04:24:14.004Z,-1.31
2022-11-27T04:26:42.688Z,-1.36
2022-11-27T04:29:11.320Z,-1.44
2022-11-27T04:31:39.943Z,-1.22
2022-11-27T04:34:08.697Z,-1.19
2022-11-27T04:36:39.673Z,-1.06
2022-11-27T04:39:08.556Z,-1.20
2022-11-27T04:41:37.322Z,-1.06
2022-11-27T04:44:06.659Z,-0.96
2022-11-27T04:46:35.182Z,-1.22
2022-11-27T04:49:03.820Z,-0.97
2022-11-27T04:51:32.953Z,-1.20
2022-11-27T04:54:03.224Z,-1.21
2022-11-27T04:56:31.613Z,-1.24
2022-11-27T04:59:00.286Z,-1.12
2022-11-27T05:01:28.624Z,-1.01
2022-11-27T05:03:57.309Z,-1.00
2022-11-27T05:06:26.017Z,-1.09
2022-11-27T05:09:00.087Z,-0.99
2022-11-27T05:11:30.988Z,-1.01
2022-11-27T05:14:13.422Z,-0.93
2022-11-27T05:16:41.935Z,-0.94
2022-11-27T05:19:11.102Z,-1.41
2022-11-27T05:21:40.069Z,-1.62
2022-11-27T05:24:09.031Z,-1.74
2022-11-27T05:26:39.702Z,-1.53
2022-11-27T05:29:09.083Z,-1.49
2022-11-27T05:31:37.757Z,-2.06
2022-11-27T05:34:06.757Z,-1.25
2022-11-27T05:36:35.780Z,-1.08
2022-11-27T05:39:06.391Z,-1.44
2022-11-27T05:41:35.325Z,-1.46
2022-11-27T05:44:05.798Z,-1.29
2022-11-27T05:46:34.393Z,-1.24
2022-11-27T05:49:03.036Z,-0.98
2022-11-27T05:51:31.741Z,-0.96
2022-11-27T05:54:00.430Z,-0.93
2022-11-27T05:56:29.055Z,-0.65
2022-11-27T05:58:57.817Z,-0.41
2022-11-27T06:01:27.614Z,-1.09
2022-11-27T06:03:56.117Z,-0.59
2022-11-27T06:06:24.879Z,-0.55
2022-11-27T06:08:53.563Z,-0.45
2022-11-27T06:11:23.342Z,-0.46
2022-11-27T06:13:52.171Z,-0.90
2022-11-27T06:16:22.403Z,-0.63
2022-11-27T06:18:52.816Z,-0.31
2022-11-27T06:21:21.608Z,-0.60
2022-11-27T06:23:50.328Z,-1.37
2022-11-27T06:26:20.683Z,-1.21
2022-11-27T06:28:50.168Z,-0.75
2022-11-27T06:31:20.604Z,-0.69
2022-11-27T06:33:50.423Z,-0.83
2022-11-27T06:36:21.320Z,-1.12
2022-11-27T06:38:50.030Z,-1.88
2022-11-27T06:41:20.958Z,-1.19
2022-11-27T06:43:49.576Z,-1.39
2022-11-27T06:46:21.254Z,-0.82
2022-11-27T06:48:51.535Z,-0.71
2022-11-27T06:51:22.697Z,-0.80
2022-11-27T06:53:52.167Z,-1.15
2022-11-27T06:56:24.023Z,-0.93
2022-11-27T06:58:53.535Z,-0.66
2022-11-27T07:01:23.458Z,-0.96
2022-11-27T07:03:52.616Z,-1.44
2022-11-27T07:06:23.894Z,-1.13
2022-11-27T07:08:53.163Z,-0.95
2022-11-27T07:11:23.284Z,-0.94
2022-11-27T07:13:52.763Z,-1.43
2022-11-27T07:16:21.438Z,-1.01
2022-11-27T07:18:51.525Z,-0.89
2022-11-27T07:21:20.473Z,-0.70
2022-11-27T07:23:50.530Z,-0.86
2022-11-27T07:26:23.275Z,-0.40
2022-11-27T07:28:51.866Z,-1.03
2022-11-27T07:31:22.451Z,-0.35
2022-11-27T07:33:52.572Z,-0.39
2022-11-27T07:36:22.534Z,-0.32
2022-11-27T07:38:53.227Z,-0.61
2022-11-27T07:41:22.149Z,-0.87
2022-11-27T07:43:50.504Z,-0.70
2022-11-27T07:46:20.539Z,-0.45
2022-11-27T07:48:49.247Z,-0.40
2022-11-27T07:51:20.365Z,-0.53
2022-11-27T07:53:51.830Z,-0.56
2022-11-27T07:56:22.256Z,-0.90
2022-11-27T07:58:50.652Z,-1.14
2022-11-27T08:01:21.804Z,-0.61
2022-11-27T08:03:50.515Z,-0.59
2022-11-27T08:06:21.708Z,-0.91
2022-11-27T08:08:51.251Z,-0.78
2022-11-27T08:11:23.737Z,-0.72
2022-11-27T08:13:52.171Z,-0.86
2022-11-27T08:16:20.915Z,-0.81
2022-11-27T08:18:49.581Z,-0.39
2022-11-27T08:21:21.621Z,-0.17
2022-11-27T08:23:50.416Z,-0.26
2022-11-27T08:26:19.034Z,-0.65
2022-11-27T08:28:48.735Z,-0.99
2022-11-27T08:31:20.842Z,-1.50
2022-11-27T08:33:49.721Z,-1.23
2022-11-27T08:36:18.767Z,-1.06
2022-11-27T08:38:47.652Z,-1.08
2022-11-27T08:41:16.336Z,-0.20
2022-11-27T08:43:44.740Z,0.13
2022-11-27T08:46:15.007Z,-0.18
2022-11-27T08:48:43.575Z,0.17
2022-11-27T08:51:13.607Z,0.03
2022-11-27T08:53:45.664Z,0.59
2022-11-27T08:56:17.524Z,0.25
2022-11-27T08:58:46.411Z,-0.53
2022-11-27T09:01:18.688Z,-0.41
2022-11-27T09:03:47.700Z,-0.08
2022-11-27T09:06:19.972Z,-0.15
2022-11-27T09:08:48.752Z,0.47
2022-11-27T09:11:20.950Z,-0.17
2022-11-27T09:13:49.499Z,0.06
2022-11-27T09:16:21.287Z,0.97
2022-11-27T09:18:51.705Z,0.58
2022-11-27T09:21:20.834Z,0.37
2022-11-27T09:23:49.737Z,0.45
2022-11-27T09:26:18.649Z,0.48
2022-11-27T09:28:47.547Z,0.68
2022-11-27T09:31:16.784Z,1.18
2022-11-27T09:33:47.289Z,0.40
2022-11-27T09:36:17.779Z,1.00
2022-11-27T09:38:46.598Z,1.35
2022-11-27T09:41:27.675Z,1.09
2022-11-27T09:43:58.160Z,1.10
2022-11-27T09:46:31.323Z,1.37
2022-11-27T09:49:02.363Z,1.44
2022-11-27T09:51:34.255Z,0.78
2022-11-27T09:54:08.287Z,1.21
2022-11-27T09:56:37.793Z,1.17
2022-11-27T09:59:15.191Z,1.59
2022-11-27T10:01:49.328Z,1.53
2022-11-27T10:04:21.554Z,1.88
2022-11-27T10:07:16.772Z,2.00
2022-11-27T10:09:56.998Z,1.59
2022-11-27T10:12:31.516Z,2.28
2022-11-27T10:15:05.758Z,2.03
2022-11-27T10:17:38.545Z,2.02
2022-11-27T10:20:19.964Z,2.38
2022-11-27T10:22:53.942Z,2.79
2022-11-27T10:25:26.847Z,3.11
2022-11-27T10:28:03.317Z,3.15
2022-11-27T10:30:33.525Z,3.58
2022-11-27T10:33:03.824Z,3.74
2022-11-27T10:35:33.618Z,3.76
2022-11-27T10:38:07.027Z,3.71
2022-11-27T10:40:38.808Z,3.71
2022-11-27T10:43:12.581Z,3.43
2022-11-27T10:45:45.472Z,3.30
2022-11-27T10:48:14.616Z,2.89
2022-11-27T10:50:46.238Z,2.77
2022-11-27T10:53:20.967Z,3.08
2022-11-27T10:56:02.655Z,3.15
2022-11-27T10:58:34.486Z,2.96
2022-11-27T11:01:04.901Z,2.91
2022-11-27T11:03:33.826Z,3.05
2022-11-27T11:06:23.178Z,3.12
2022-11-27T11:09:03.034Z,2.60
2022-11-27T11:11:31.796Z,2.37
2022-11-27T11:14:00.394Z,2.35
2022-11-27T11:16:35.128Z,2.13
2022-11-27T11:19:06.351Z,2.09
2022-11-27T11:21:40.595Z,2.17
2022-11-27T11:24:15.950Z,2.54
2022-11-27T11:26:46.812Z,2.25
2022-11-27T11:29:31.053Z,2.56
2022-11-27T11:32:03.796Z,2.63
2022-11-27T11:34:32.798Z,2.34
2022-11-27T11:37:05.032Z,2.65
2022-11-27T11:39:35.718Z,2.58
2022-11-27T11:42:10.716Z,2.44
2022-11-27T11:44:40.894Z,2.27
2022-11-27T11:47:15.753Z,2.51
2022-11-27T11:49:44.008Z,2.59
2022-11-27T11:52:26.774Z,2.72
2022-11-27T11:55:01.747Z,2.83
2022-11-27T11:58:02.794Z,2.90
2022-11-27T12:00:58.426Z,2.57
2022-11-27T12:03:38.322Z,2.73
2022-11-27T12:06:32.721Z,2.92
2022-11-27T12:09:21.449Z,2.64
2022-11-27T12:11:55.720Z,2.74
2022-11-27T12:14:35.752Z,2.79
2022-11-27T12:17:12.551Z,2.83
2022-11-27T12:20:19.824Z,3.02
2022-11-27T12:23:16.657Z,2.95
2022-11-27T12:25:51.088Z,2.86
2022-11-27T12:28:33.907Z,2.83
2022-11-27T12:31:06.795Z,2.86
2022-11-27T12:33:44.512Z,2.83
2022-11-27T12:36:19.247Z,2.84
2022-11-27T12:39:11.299Z,2.81
2022-11-27T12:41:50.508Z,2.71
2022-11-27T12:44:23.936Z,2.82
2022-11-27T12:46:58.816Z,2.76
2022-11-27T12:49:30.113Z,2.80
2022-11-27T12:52:03.706Z,2.71
2022-11-27T12:54:34.176Z,2.81
2022-11-27T12:57:09.107Z,2.79
2022-11-27T12:59:42.580Z,2.97
2022-11-27T13:02:24.976Z,2.95
2022-11-27T13:04:57.807Z,3.01
2022-11-27T13:07:29.625Z,3.03
2022-11-27T13:10:02.183Z,2.88
2022-11-27T13:12:36.375Z,2.62
2022-11-27T13:15:10.183Z,2.76
2022-11-27T13:17:42.047Z,2.80
2022-11-27T13:20:15.874Z,3.02
2022-11-27T13:22:44.876Z,3.09
2022-11-27T13:25:15.536Z,3.24
2022-11-27T13:27:48.178Z,2.98
2022-11-27T13:30:22.131Z,3.27
2022-11-27T13:32:52.851Z,3.33
2022-11-27T13:35:24.714Z,3.41
2022-11-27T13:37:58.689Z,3.47
2022-11-27T13:40:30.275Z,3.45
2022-11-27T13:43:05.362Z,3.50
2022-11-27T13:45:37.811Z,3.36
2022-11-27T13:48:31.077Z,3.31
2022-11-27T13:51:00.186Z,3.14
2022-11-27T13:53:33.320Z,3.21
2022-11-27T13:56:02.006Z,3.10
2022-11-27T13:58:33.801Z,2.94
2022-11-27T14:01:14.708Z,3.05
2022-11-27T14:03:43.516Z,2.61
2022-11-27T14:06:21.795Z,2.80
2022-11-27T14:08:52.450Z,2.67
2022-11-27T14:11:40.290Z,2.72
2022-11-27T14:14:22.017Z,2.70
2022-11-27T14:16:58.765Z,2.70
2022-11-27T14:19:34.522Z,2.07
2022-11-27T14:22:03.543Z,2.32
2022-11-27T14:24:41.451Z,2.22
2022-11-27T14:27:21.541Z,2.33
2022-11-27T14:29:52.353Z,2.54
2022-11-27T14:32:22.010Z,2.49
2022-11-27T14:34:50.232Z,2.33
2022-11-27T14:37:23.663Z,2.49
2022-11-27T14:39:52.653Z,2.56
2022-11-27T14:42:28.141Z,2.64
2022-11-27T14:45:07.607Z,2.47
2022-11-27T14:47:36.880Z,2.30
2022-11-27T14:50:07.383Z,2.26
2022-11-27T14:52:35.578Z,2.57
2022-11-27T14:55:04.643Z,2.49
2022-11-27T14:57:33.408Z,2.54
2022-11-27T15:00:16.862Z,2.65
2022-11-27T15:02:46.321Z,2.40
2022-11-27T15:05:20.866Z,2.40
2022-11-27T15:07:51.084Z,2.34
2022-11-27T15:10:28.355Z,2.40
2022-11-27T15:12:57.886Z,2.38
2022-11-27T15:15:29.529Z,2.43
2022-11-27T15:18:00.006Z,2.31
2022-11-27T15:20:33.212Z,2.41
2022-11-27T15:23:02.130Z,2.42
2022-11-27T15:25:36.139Z,2.44
2022-11-27T15:28:06.535Z,2.36
2022-11-27T15:30:36.415Z,2.50
2022-11-27T15:33:05.236Z,2.30
2022-11-27T15:35:35.427Z,2.30
2022-11-27T15:38:09.820Z,2.33
2022-11-27T15:40:39.757Z,2.14
2022-11-27T15:43:12.045Z,2.22
2022-11-27T15:45:43.158Z,2.19
2022-11-27T15:48:15.828Z,2.20
2022-11-27T15:50:51.208Z,2.18
2022-11-27T15:53:20.374Z,2.11
2022-11-27T15:55:48.683Z,2.12
2022-11-27T15:58:17.292Z,2.12
2022-11-27T16:00:47.286Z,2.15
2022-11-27T16:03:16.021Z,1.97
2022-11-27T16:05:44.879Z,1.91
2022-11-27T16:08:14.116Z,2.02
2022-11-27T16:10:42.613Z,1.99
2022-11-27T16:13:11.298Z,1.99
2022-11-27T16:15:39.975Z,1.99
2022-11-27T16:18:10.832Z,2.05
2022-11-27T16:20:39.604Z,1.72
2022-11-27T16:23:08.297Z,1.87
2022-11-27T16:25:39.296Z,1.84
2022-11-27T16:28:07.990Z,1.73
2022-11-27T16:30:36.738Z,1.47
2022-11-27T16:33:05.463Z,1.42
2022-11-27T16:35:35.546Z,1.46
2022-11-27T16:38:04.374Z,1.51
2022-11-27T16:40:34.956Z,1.42
2022-11-27T16:43:04.335Z,1.33
2022-11-27T16:45:37.303Z,1.46
2022-11-27T16:48:06.312Z,1.47
2022-11-27T16:50:36.529Z,1.56
2022-11-27T16:53:05.053Z,1.63
2022-11-27T16:55:34.269Z,1.40
2022-11-27T16:58:02.988Z,1.11
2022-11-27T17:00:31.995Z,1.21
2022-11-27T17:03:00.697Z,1.43
2022-11-27T17:05:29.313Z,1.33
2022-11-27T17:07:59.576Z,1.47
2022-11-27T17:10:28.019Z,1.35
2022-11-27T17:12:56.656Z,1.51
2022-11-27T17:15:25.291Z,1.45
2022-11-27T17:17:57.633Z,1.57
2022-11-27T17:20:26.403Z,1.63
2022-11-27T17:22:54.696Z,1.56
2022-11-27T17:25:25.528Z,1.53
2022-11-27T17:27:54.862Z,1.59
2022-11-27T17:30:23.835Z,1.56
2022-11-27T17:32:52.618Z,1.46
2022-11-27T17:35:21.466Z,1.49
2022-11-27T17:37:49.731Z,1.53
2022-11-27T17:40:18.513Z,1.32
2022-11-27T17:42:49.244Z,1.22
2022-11-27T17:45:18.045Z,1.40
2022-11-27T17:47:46.823Z,0.90
2022-11-27T17:50:15.665Z,1.20
2022-11-27T17:52:44.195Z,1.00
2022-11-27T17:55:13.477Z,1.24
2022-11-27T17:57:42.594Z,1.31
2022-11-27T18:00:13.392Z,1.55
2022-11-27T18:02:45.503Z,1.27
2022-11-27T18:05:15.524Z,1.32
2022-11-27T18:07:44.535Z,1.36
2022-11-27T18:10:13.515Z,1.51
2022-11-27T18:12:42.494Z,1.41
2022-11-27T18:15:14.225Z,1.40
2022-11-27T18:17:43.019Z,1.38
2022-11-27T18:20:12.142Z,1.39
2022-11-27T18:22:40.459Z,1.33
2022-11-27T18:25:09.937Z,1.41
2022-11-27T18:27:38.590Z,1.45
2022-11-27T18:30:08.531Z,1.58
2022-11-27T18:32:39.098Z,1.60
2022-11-27T18:35:08.320Z,1.51
2022-11-27T18:37:38.555Z,1.47
2022-11-27T18:40:09.288Z,1.61
2022-11-27T18:42:38.097Z,1.58
2022-11-27T18:45:20.172Z,1.63
2022-11-27T18:47:58.300Z,1.56
2022-11-27T18:50:29.654Z,1.75
2022-11-27T18:52:58.543Z,1.29
2022-11-27T18:55:27.333Z,1.28
2022-11-27T18:57:56.254Z,1.28
2022-11-27T19:00:25.090Z,1.38
2022-11-27T19:02:54.099Z,1.20
2022-11-27T19:05:24.251Z,0.73
2022-11-27T19:07:52.641Z,0.22
2022-11-27T19:10:21.650Z,0.49
2022-11-27T19:12:50.371Z,0.49
2022-11-27T19:15:19.278Z,0.43
2022-11-27T19:17:47.921Z,-0.13
2022-11-27T19:20:16.653Z,-0.42
2022-11-27T19:22:47.141Z,-0.11
2022-11-27T19:25:16.058Z,-0.19
2022-11-27T19:27:45.023Z,0.23
2022-11-27T19:30:14.829Z,0.36
2022-11-27T19:32:44.153Z,0.26
2022-11-27T19:35:13.976Z,0.08
2022-11-27T19:37:42.287Z,0.28
2022-11-27T19:40:13.877Z,0.43
2022-11-27T19:42:42.562Z,0.42
2022-11-27T19:45:12.274Z,0.70
2022-11-27T19:47:40.957Z,0.92
2022-11-27T19:50:10.240Z,1.36
2022-11-27T19:52:38.658Z,1.50
2022-11-27T19:55:08.262Z,1.44
2022-11-27T19:57:38.875Z,1.00
2022-11-27T20:00:08.075Z,0.68
2022-11-27T20:02:42.821Z,0.54
2022-11-27T20:05:11.688Z,0.36
2022-11-27T20:07:40.430Z,0.73
2022-11-27T20:10:09.955Z,0.89
2022-11-27T20:12:41.366Z,1.05
2022-11-27T20:15:14.428Z,1.11
2022-11-27T20:17:43.865Z,1.08
2022-11-27T20:20:14.340Z,1.17
2022-11-27T20:22:43.195Z,1.00
2022-11-27T20:25:19.518Z,0.97
2022-11-27T20:27:51.470Z,0.89
2022-11-27T20:30:20.861Z,0.76
2022-11-27T20:32:49.616Z,0.65
2022-11-27T20:35:18.380Z,0.69
2022-11-27T20:37:47.887Z,0.76
2022-11-27T20:40:17.131Z,0.82
2022-11-27T20:42:46.103Z,0.76
2022-11-27T20:45:20.347Z,0.90
2022-11-27T20:47:51.209Z,0.62
2022-11-27T20:50:21.069Z,0.74
2022-11-27T20:52:49.986Z,0.81
2022-11-27T20:55:20.018Z,0.47
2022-11-27T20:57:53.495Z,0.35
2022-11-27T21:00:25.895Z,0.69
2022-11-27T21:02:55.089Z,0.36
2022-11-27T21:05:23.795Z,0.08
2022-11-27T21:07:52.221Z,0.05
2022-11-27T21:10:23.418Z,-0.04
2022-11-27T21:12:52.134Z,-0.05
2022-11-27T21:15:20.837Z,0.14
2022-11-27T21:17:50.951Z,-0.02
2022-11-27T21:20:20.805Z,0.00
2022-11-27T21:22:49.230Z,0.13
2022-11-27T21:25:22.642Z,0.32
2022-11-27T21:27:55.920Z,0.35
2022-11-27T21:30:24.632Z,0.64
2022-11-27T21:32:54.771Z,0.85
2022-11-27T21:35:26.392Z,0.93
2022-11-27T21:37:57.034Z,1.10
2022-11-27T21:40:25.665Z,1.17
2022-11-27T21:42:54.710Z,1.11
2022-11-27T21:45:23.423Z,1.09
2022-11-27T21:47:52.114Z,0.65
2022-11-27T21:50:22.220Z,0.78
2022-11-27T21:52:50.484Z,0.78
2022-11-27T21:55:21.998Z,0.85
2022-11-27T21:57:50.741Z,0.91
2022-11-27T22:00:20.699Z,0.51
2022-11-27T22:02:49.502Z,0.22
2022-11-27T22:05:18.747Z,-0.10
2022-11-27T22:07:48.403Z,-0.18
2022-11-27T22:10:17.111Z,-0.43
2022-11-27T22:12:45.949Z,-0.44
2022-11-27T22:15:14.911Z,-0.11
2022-11-27T22:17:43.771Z,0.39
2022-11-27T22:20:14.200Z,0.56
2022-11-27T22:22:43.014Z,0.46
2022-11-27T22:25:13.183Z,0.00
2022-11-27T22:27:42.023Z,0.06
2022-11-27T22:30:11.482Z,-0.21
2022-11-27T22:32:40.312Z,-0.59
2022-11-27T22:35:09.667Z,-0.47
2022-11-27T22:37:38.146Z,-0.36
2022-11-27T22:40:08.654Z,0.16
2022-11-27T22:42:38.481Z,0.48
2022-11-27T22:45:10.139Z,-0.15
2022-11-27T22:47:38.766Z,-0.13
2022-11-27T22:50:08.443Z,-0.31
2022-11-27T22:52:37.168Z,-0.50
2022-11-27T22:55:06.624Z,-0.24
2022-11-27T22:57:35.389Z,-0.31
2022-11-27T23:00:07.686Z,-0.57
2022-11-27T23:02:38.654Z,-0.48
2022-11-27T23:05:07.730Z,-0.69
2022-11-27T23:07:36.124Z,-0.76
2022-11-27T23:10:05.147Z,-0.80
2022-11-27T23:12:33.769Z,-0.63
2022-11-27T23:15:02.434Z,-0.94
2022-11-27T23:17:32.426Z,-0.44
2022-11-27T23:20:01.032Z,-0.80
2022-11-27T23:22:29.347Z,-0.83
2022-11-27T23:24:57.924Z,-1.00
2022-11-27T23:27:26.506Z,-0.87
2022-11-27T23:29:55.131Z,-0.95
2022-11-27T23:32:23.808Z,-0.87
2022-11-27T23:34:53.507Z,-0.47
2022-11-27T23:37:22.087Z,-0.46
2022-11-27T23:39:50.689Z,-0.56
2022-11-27T23:42:19.280Z,-0.79
2022-11-27T23:44:47.919Z,-0.99
2022-11-27T23:47:16.577Z,-0.82
2022-11-27T23:49:44.766Z,-0.96
2022-11-27T23:52:17.299Z,-0.71
2022-11-27T23:54:46.040Z,-0.94
2022-11-27T23:57:14.874Z,-0.53
2022-11-27T23:59:43.554Z,-0.52
